sensor_id;sensor_type;location;lat;lon;timestamp;pressure;altitude;pressure_sealevel;temperature
50206;BMP280;36098;48.390;10.856;2022-09-09T00:01:35;95858.41;;;25.43
50206;BMP280;36098;48.390;10.856;2022-09-09T00:07:05;95852.72;;;25.36
50206;BMP280;36098;48.390;10.856;2022-09-09T00:12:45;95861.13;;;25.38
50206;BMP280;36098;48.390;10.856;2022-09-09T00:15:19;95853.69;;;25.40
50206;BMP280;36098;48.390;10.856;2022-09-09T00:18:15;95854.28;;;25.37
50206;BMP280;36098;48.390;10.856;2022-09-09T00:20:49;95861.53;;;25.45
50206;BMP280;36098;48.390;10.856;2022-09-09T00:23:29;95848.63;;;25.43
50206;BMP280;36098;48.390;10.856;2022-09-09T00:26:47;95853.31;;;25.46
50206;BMP280;36098;48.390;10.856;2022-09-09T00:29:33;95847.25;;;25.46
50206;BMP280;36098;48.390;10.856;2022-09-09T00:32:11;95845.69;;;25.45
50206;BMP280;36098;48.390;10.856;2022-09-09T00:34:42;95847.91;;;25.38
50206;BMP280;36098;48.390;10.856;2022-09-09T00:37:09;95841.47;;;25.44
50206;BMP280;36098;48.390;10.856;2022-09-09T00:39:38;95841.72;;;25.42
50206;BMP280;36098;48.390;10.856;2022-09-09T00:42:17;95852.13;;;25.39
50206;BMP280;36098;48.390;10.856;2022-09-09T00:47:39;95835.69;;;25.42
50206;BMP280;36098;48.390;10.856;2022-09-09T00:53:14;95843.41;;;25.38
50206;BMP280;36098;48.390;10.856;2022-09-09T00:58:32;95843.69;;;25.37
50206;BMP280;36098;48.390;10.856;2022-09-09T01:01:11;95846.13;;;25.33
50206;BMP280;36098;48.390;10.856;2022-09-09T01:03:37;95843.25;;;25.30
50206;BMP280;36098;48.390;10.856;2022-09-09T01:06:16;95843.47;;;25.33
50206;BMP280;36098;48.390;10.856;2022-09-09T01:11:45;95841.69;;;25.29
50206;BMP280;36098;48.390;10.856;2022-09-09T01:17:12;95844.16;;;25.25
50206;BMP280;36098;48.390;10.856;2022-09-09T01:28:08;95830.13;;;25.25
50206;BMP280;36098;48.390;10.856;2022-09-09T01:30:37;95829.06;;;25.26
50206;BMP280;36098;48.390;10.856;2022-09-09T01:33:03;95832.50;;;25.26
50206;BMP280;36098;48.390;10.856;2022-09-09T01:38:12;95822.13;;;25.30
50206;BMP280;36098;48.390;10.856;2022-09-09T01:40:38;95831.94;;;25.29
50206;BMP280;36098;48.390;10.856;2022-09-09T01:43:04;95833.78;;;25.29
50206;BMP280;36098;48.390;10.856;2022-09-09T01:45:30;95830.63;;;25.27
50206;BMP280;36098;48.390;10.856;2022-09-09T01:47:56;95827.81;;;25.23
50206;BMP280;36098;48.390;10.856;2022-09-09T01:50:22;95829.88;;;25.26
50206;BMP280;36098;48.390;10.856;2022-09-09T01:52:54;95831.72;;;25.26
50206;BMP280;36098;48.390;10.856;2022-09-09T01:55:28;95831.13;;;25.29
50206;BMP280;36098;48.390;10.856;2022-09-09T02:00:45;95819.41;;;25.35
50206;BMP280;36098;48.390;10.856;2022-09-09T02:03:19;95826.81;;;25.33
50206;BMP280;36098;48.390;10.856;2022-09-09T02:05:58;95820.56;;;25.29
50206;BMP280;36098;48.390;10.856;2022-09-09T02:08:36;95812.13;;;25.27
50206;BMP280;36098;48.390;10.856;2022-09-09T02:11:24;95822.72;;;25.27
50206;BMP280;36098;48.390;10.856;2022-09-09T02:13:53;95818.41;;;25.31
50206;BMP280;36098;48.390;10.856;2022-09-09T02:16:23;95801.56;;;25.27
50206;BMP280;36098;48.390;10.856;2022-09-09T02:19:11;95806.25;;;25.30
50206;BMP280;36098;48.390;10.856;2022-09-09T02:21:39;95796.50;;;25.30
50206;BMP280;36098;48.390;10.856;2022-09-09T02:24:07;95798.34;;;25.30
50206;BMP280;36098;48.390;10.856;2022-09-09T02:26:38;95800.00;;;25.26
50206;BMP280;36098;48.390;10.856;2022-09-09T02:29:08;95799.22;;;25.25
50206;BMP280;36098;48.390;10.856;2022-09-09T02:31:35;95793.72;;;25.22
50206;BMP280;36098;48.390;10.856;2022-09-09T02:34:03;95791.56;;;25.24
50206;BMP280;36098;48.390;10.856;2022-09-09T02:36:32;95790.28;;;25.21
50206;BMP280;36098;48.390;10.856;2022-09-09T02:38:59;95791.31;;;25.25
50206;BMP280;36098;48.390;10.856;2022-09-09T02:41:33;95785.22;;;25.25
50206;BMP280;36098;48.390;10.856;2022-09-09T02:43:59;95787.84;;;25.25
50206;BMP280;36098;48.390;10.856;2022-09-09T02:46:36;95777.59;;;25.23
50206;BMP280;36098;48.390;10.856;2022-09-09T02:49:19;95787.09;;;25.24
50206;BMP280;36098;48.390;10.856;2022-09-09T02:52:01;95783.88;;;25.27
50206;BMP280;36098;48.390;10.856;2022-09-09T02:54:29;95791.56;;;25.24
50206;BMP280;36098;48.390;10.856;2022-09-09T02:56:57;95788.66;;;25.25
50206;BMP280;36098;48.390;10.856;2022-09-09T02:59:26;95802.16;;;25.24
50206;BMP280;36098;48.390;10.856;2022-09-09T03:01:52;95796.88;;;25.24
50206;BMP280;36098;48.390;10.856;2022-09-09T03:04:18;95796.09;;;25.23
50206;BMP280;36098;48.390;10.856;2022-09-09T03:06:43;95792.66;;;25.23
50206;BMP280;36098;48.390;10.856;2022-09-09T03:09:09;95796.09;;;25.23
50206;BMP280;36098;48.390;10.856;2022-09-09T03:11:35;95791.16;;;25.17
50206;BMP280;36098;48.390;10.856;2022-09-09T03:14:01;95797.19;;;25.17
50206;BMP280;36098;48.390;10.856;2022-09-09T03:16:27;95799.78;;;25.22
50206;BMP280;36098;48.390;10.856;2022-09-09T03:18:52;95798.22;;;25.21
50206;BMP280;36098;48.390;10.856;2022-09-09T03:21:17;95806.44;;;25.20
50206;BMP280;36098;48.390;10.856;2022-09-09T03:23:43;95808.34;;;25.14
50206;BMP280;36098;48.390;10.856;2022-09-09T03:26:10;95815.88;;;25.08
50206;BMP280;36098;48.390;10.856;2022-09-09T03:28:35;95806.91;;;25.04
50206;BMP280;36098;48.390;10.856;2022-09-09T03:31:02;95809.63;;;25.17
50206;BMP280;36098;48.390;10.856;2022-09-09T03:33:28;95804.56;;;25.20
50206;BMP280;36098;48.390;10.856;2022-09-09T03:35:54;95801.72;;;25.17
50206;BMP280;36098;48.390;10.856;2022-09-09T03:38:24;95800.66;;;25.18
50206;BMP280;36098;48.390;10.856;2022-09-09T03:40:54;95808.06;;;25.16
50206;BMP280;36098;48.390;10.856;2022-09-09T03:43:21;95798.22;;;25.21
50206;BMP280;36098;48.390;10.856;2022-09-09T03:45:47;95800.16;;;25.16
50206;BMP280;36098;48.390;10.856;2022-09-09T03:48:13;95793.00;;;25.16
50206;BMP280;36098;48.390;10.856;2022-09-09T03:50:47;95795.88;;;25.20
50206;BMP280;36098;48.390;10.856;2022-09-09T03:53:14;95795.41;;;25.13
50206;BMP280;36098;48.390;10.856;2022-09-09T03:55:43;95785.91;;;25.12
50206;BMP280;36098;48.390;10.856;2022-09-09T03:58:08;95783.22;;;25.17
50206;BMP280;36098;48.390;10.856;2022-09-09T04:00:34;95781.94;;;25.14
50206;BMP280;36098;48.390;10.856;2022-09-09T04:02:59;95784.22;;;25.21
50206;BMP280;36098;48.390;10.856;2022-09-09T04:05:24;95772.72;;;25.12
50206;BMP280;36098;48.390;10.856;2022-09-09T04:07:49;95776.91;;;25.13
50206;BMP280;36098;48.390;10.856;2022-09-09T04:10:16;95774.50;;;25.16
50206;BMP280;36098;48.390;10.856;2022-09-09T04:12:41;95776.38;;;25.16
50206;BMP280;36098;48.390;10.856;2022-09-09T04:15:07;95767.16;;;25.13
50206;BMP280;36098;48.390;10.856;2022-09-09T04:17:33;95778.50;;;25.14
50206;BMP280;36098;48.390;10.856;2022-09-09T04:19:58;95770.06;;;25.12
50206;BMP280;36098;48.390;10.856;2022-09-09T04:22:23;95775.75;;;25.06
50206;BMP280;36098;48.390;10.856;2022-09-09T04:24:49;95780.63;;;25.12
50206;BMP280;36098;48.390;10.856;2022-09-09T04:27:14;95779.56;;;25.13
50206;BMP280;36098;48.390;10.856;2022-09-09T04:29:39;95779.06;;;25.11
50206;BMP280;36098;48.390;10.856;2022-09-09T04:32:05;95792.38;;;25.06
50206;BMP280;36098;48.390;10.856;2022-09-09T04:34:30;95788.16;;;25.05
50206;BMP280;36098;48.390;10.856;2022-09-09T04:36:56;95796.16;;;25.00
50206;BMP280;36098;48.390;10.856;2022-09-09T04:39:22;95792.38;;;25.06
50206;BMP280;36098;48.390;10.856;2022-09-09T04:41:47;95792.94;;;25.03
50206;BMP280;36098;48.390;10.856;2022-09-09T04:44:13;95796.56;;;25.07
50206;BMP280;36098;48.390;10.856;2022-09-09T04:46:38;95779.66;;;25.08
50206;BMP280;36098;48.390;10.856;2022-09-09T04:49:06;95789.50;;;25.03
50206;BMP280;36098;48.390;10.856;2022-09-09T04:51:31;95777.09;;;25.03
50206;BMP280;36098;48.390;10.856;2022-09-09T04:53:56;95772.03;;;25.07
50206;BMP280;36098;48.390;10.856;2022-09-09T04:56:22;95780.00;;;25.02
50206;BMP280;36098;48.390;10.856;2022-09-09T04:58:47;95773.88;;;25.06
50206;BMP280;36098;48.390;10.856;2022-09-09T05:01:18;95783.81;;;25.14
50206;BMP280;36098;48.390;10.856;2022-09-09T05:03:44;95773.97;;;25.01
50206;BMP280;36098;48.390;10.856;2022-09-09T05:06:15;95785.59;;;25.00
50206;BMP280;36098;48.390;10.856;2022-09-09T05:08:41;95785.28;;;25.02
50206;BMP280;36098;48.390;10.856;2022-09-09T05:13:45;95784.22;;;25.03
50206;BMP280;36098;48.390;10.856;2022-09-09T05:16:11;95791.47;;;24.97
50206;BMP280;36098;48.390;10.856;2022-09-09T05:18:40;95796.44;;;24.99
50206;BMP280;36098;48.390;10.856;2022-09-09T05:21:06;95806.22;;;24.98
50206;BMP280;36098;48.390;10.856;2022-09-09T05:23:32;95816.81;;;24.98
50206;BMP280;36098;48.390;10.856;2022-09-09T05:25:59;95814.75;;;24.95
50206;BMP280;36098;48.390;10.856;2022-09-09T05:28:25;95818.44;;;24.94
50206;BMP280;36098;48.390;10.856;2022-09-09T05:31:02;95839.00;;;24.97
50206;BMP280;36098;48.390;10.856;2022-09-09T05:33:31;95831.56;;;24.99
50206;BMP280;36098;48.390;10.856;2022-09-09T05:35:59;95844.63;;;24.91
50206;BMP280;36098;48.390;10.856;2022-09-09T05:38:25;95861.25;;;24.91
50206;BMP280;36098;48.390;10.856;2022-09-09T05:40:51;95858.78;;;24.81
50206;BMP280;36098;48.390;10.856;2022-09-09T05:43:18;95862.31;;;24.72
50206;BMP280;36098;48.390;10.856;2022-09-09T05:45:43;95877.16;;;24.68
50206;BMP280;36098;48.390;10.856;2022-09-09T05:48:08;95868.53;;;24.62
50206;BMP280;36098;48.390;10.856;2022-09-09T05:50:33;95874.38;;;24.59
50206;BMP280;36098;48.390;10.856;2022-09-09T05:52:59;95869.28;;;24.63
50206;BMP280;36098;48.390;10.856;2022-09-09T05:55:24;95876.09;;;24.69
50206;BMP280;36098;48.390;10.856;2022-09-09T05:57:50;95870.09;;;24.63
50206;BMP280;36098;48.390;10.856;2022-09-09T06:00:17;95872.88;;;24.72
50206;BMP280;36098;48.390;10.856;2022-09-09T06:02:43;95871.50;;;24.74
50206;BMP280;36098;48.390;10.856;2022-09-09T06:05:08;95866.03;;;24.71
50206;BMP280;36098;48.390;10.856;2022-09-09T06:07:35;95872.22;;;24.61
50206;BMP280;36098;48.390;10.856;2022-09-09T06:10:01;95865.16;;;24.57
50206;BMP280;36098;48.390;10.856;2022-09-09T06:12:26;95862.91;;;24.69
50206;BMP280;36098;48.390;10.856;2022-09-09T06:14:51;95860.53;;;24.67
50206;BMP280;36098;48.390;10.856;2022-09-09T06:17:17;95864.31;;;24.80
50206;BMP280;36098;48.390;10.856;2022-09-09T06:19:42;95867.91;;;24.89
50206;BMP280;36098;48.390;10.856;2022-09-09T06:22:07;95863.13;;;24.91
50206;BMP280;36098;48.390;10.856;2022-09-09T06:24:37;95868.69;;;24.89
50206;BMP280;36098;48.390;10.856;2022-09-09T06:27:03;95874.69;;;24.76
50206;BMP280;36098;48.390;10.856;2022-09-09T06:29:28;95871.09;;;24.67
50206;BMP280;36098;48.390;10.856;2022-09-09T06:31:54;95869.25;;;24.68
50206;BMP280;36098;48.390;10.856;2022-09-09T06:34:19;95863.25;;;24.62
50206;BMP280;36098;48.390;10.856;2022-09-09T06:36:44;95872.25;;;24.80
50206;BMP280;36098;48.390;10.856;2022-09-09T06:39:10;95859.06;;;24.98
50206;BMP280;36098;48.390;10.856;2022-09-09T06:41:36;95865.53;;;24.87
50206;BMP280;36098;48.390;10.856;2022-09-09T06:44:03;95851.50;;;24.92
50206;BMP280;36098;48.390;10.856;2022-09-09T06:46:30;95850.28;;;24.84
50206;BMP280;36098;48.390;10.856;2022-09-09T06:48:57;95847.84;;;24.88
50206;BMP280;36098;48.390;10.856;2022-09-09T06:51:33;95852.53;;;24.72
50206;BMP280;36098;48.390;10.856;2022-09-09T06:54:00;95856.13;;;24.81
50206;BMP280;36098;48.390;10.856;2022-09-09T06:58:55;95845.69;;;24.53
50206;BMP280;36098;48.390;10.856;2022-09-09T07:01:24;95855.66;;;24.56
50206;BMP280;36098;48.390;10.856;2022-09-09T07:03:54;95851.69;;;24.58
50206;BMP280;36098;48.390;10.856;2022-09-09T07:06:22;95868.38;;;24.54
50206;BMP280;36098;48.390;10.856;2022-09-09T07:08:53;95877.16;;;24.44
50206;BMP280;36098;48.390;10.856;2022-09-09T07:11:19;95880.88;;;24.43
50206;BMP280;36098;48.390;10.856;2022-09-09T07:13:46;95883.00;;;24.41
50206;BMP280;36098;48.390;10.856;2022-09-09T07:16:14;95896.03;;;24.33
50206;BMP280;36098;48.390;10.856;2022-09-09T07:18:40;95891.31;;;24.30
50206;BMP280;36098;48.390;10.856;2022-09-09T07:21:06;95890.47;;;24.34
50206;BMP280;36098;48.390;10.856;2022-09-09T07:23:32;95892.81;;;24.36
50206;BMP280;36098;48.390;10.856;2022-09-09T07:25:58;95894.91;;;24.39
50206;BMP280;36098;48.390;10.856;2022-09-09T07:28:24;95888.28;;;24.41
50206;BMP280;36098;48.390;10.856;2022-09-09T07:30:56;95889.19;;;24.32
50206;BMP280;36098;48.390;10.856;2022-09-09T07:33:23;95891.09;;;24.26
50206;BMP280;36098;48.390;10.856;2022-09-09T07:35:49;95896.13;;;24.23
50206;BMP280;36098;48.390;10.856;2022-09-09T07:38:15;95891.09;;;24.26
50206;BMP280;36098;48.390;10.856;2022-09-09T07:40:40;95893.22;;;24.24
50206;BMP280;36098;48.390;10.856;2022-09-09T07:43:05;95896.94;;;24.23
50206;BMP280;36098;48.390;10.856;2022-09-09T07:45:31;95889.75;;;24.29
50206;BMP280;36098;48.390;10.856;2022-09-09T07:47:58;95895.81;;;24.29
50206;BMP280;36098;48.390;10.856;2022-09-09T07:50:24;95911.69;;;24.24
50206;BMP280;36098;48.390;10.856;2022-09-09T07:52:51;95906.66;;;24.28
50206;BMP280;36098;48.390;10.856;2022-09-09T07:55:16;95902.88;;;24.34
50206;BMP280;36098;48.390;10.856;2022-09-09T07:57:41;95909.50;;;24.31
50206;BMP280;36098;48.390;10.856;2022-09-09T08:00:07;95898.00;;;24.22
50206;BMP280;36098;48.390;10.856;2022-09-09T08:02:33;95894.34;;;24.18
50206;BMP280;36098;48.390;10.856;2022-09-09T08:04:58;95897.69;;;24.24
50206;BMP280;36098;48.390;10.856;2022-09-09T08:07:23;95905.91;;;24.22
50206;BMP280;36098;48.390;10.856;2022-09-09T08:09:49;95907.31;;;24.15
50206;BMP280;36098;48.390;10.856;2022-09-09T08:12:14;95908.94;;;24.11
50206;BMP280;36098;48.390;10.856;2022-09-09T08:14:40;95906.56;;;24.09
50206;BMP280;36098;48.390;10.856;2022-09-09T08:17:05;95906.81;;;24.13
50206;BMP280;36098;48.390;10.856;2022-09-09T08:19:31;95911.84;;;24.09
50206;BMP280;36098;48.390;10.856;2022-09-09T08:21:59;95909.19;;;24.09
50206;BMP280;36098;48.390;10.856;2022-09-09T08:24:26;95910.84;;;24.05
50206;BMP280;36098;48.390;10.856;2022-09-09T08:26:52;95907.19;;;24.01
50206;BMP280;36098;48.390;10.856;2022-09-09T08:29:18;95920.03;;;24.08
50206;BMP280;36098;48.390;10.856;2022-09-09T08:31:55;95915.03;;;24.06
50206;BMP280;36098;48.390;10.856;2022-09-09T08:34:22;95904.44;;;24.11
50206;BMP280;36098;48.390;10.856;2022-09-09T08:36:49;95898.66;;;24.09
50206;BMP280;36098;48.390;10.856;2022-09-09T08:39:17;95909.44;;;24.13
50206;BMP280;36098;48.390;10.856;2022-09-09T08:44:42;95911.41;;;24.02
50206;BMP280;36098;48.390;10.856;2022-09-09T08:50:03;95920.88;;;24.03
50206;BMP280;36098;48.390;10.856;2022-09-09T08:52:36;95919.00;;;24.04
50206;BMP280;36098;48.390;10.856;2022-09-09T08:57:57;95920.13;;;23.98
50206;BMP280;36098;48.390;10.856;2022-09-09T09:00:40;95922.53;;;23.94
50206;BMP280;36098;48.390;10.856;2022-09-09T09:09:18;95925.66;;;24.01
50206;BMP280;36098;48.390;10.856;2022-09-09T09:11:50;95921.38;;;24.05
50206;BMP280;36098;48.390;10.856;2022-09-09T09:14:21;95921.31;;;24.10
50206;BMP280;36098;48.390;10.856;2022-09-09T09:16:58;95910.03;;;24.05
50206;BMP280;36098;48.390;10.856;2022-09-09T09:19:24;95914.53;;;24.04
50206;BMP280;36098;48.390;10.856;2022-09-09T09:24:47;95913.72;;;24.04
50206;BMP280;36098;48.390;10.856;2022-09-09T09:27:40;95912.06;;;24.13
50206;BMP280;36098;48.390;10.856;2022-09-09T09:30:14;95911.06;;;24.09
50206;BMP280;36098;48.390;10.856;2022-09-09T09:32:51;95906.38;;;24.01
50206;BMP280;36098;48.390;10.856;2022-09-09T09:35:17;95911.41;;;24.02
50206;BMP280;36098;48.390;10.856;2022-09-09T09:37:43;95910.00;;;24.10
50206;BMP280;36098;48.390;10.856;2022-09-09T09:40:14;95909.94;;;24.15
50206;BMP280;36098;48.390;10.856;2022-09-09T09:43:01;95909.75;;;24.06
50206;BMP280;36098;48.390;10.856;2022-09-09T09:45:35;95905.00;;;24.08
50206;BMP280;36098;48.390;10.856;2022-09-09T09:48:05;95909.72;;;24.11
50206;BMP280;36098;48.390;10.856;2022-09-09T09:50:32;95908.13;;;24.10
50206;BMP280;36098;48.390;10.856;2022-09-09T09:53:00;95911.84;;;24.09
50206;BMP280;36098;48.390;10.856;2022-09-09T09:55:28;95916.66;;;24.02
50206;BMP280;36098;48.390;10.856;2022-09-09T09:58:01;95910.50;;;24.12
50206;BMP280;36098;48.390;10.856;2022-09-09T10:00:27;95915.22;;;24.15
50206;BMP280;36098;48.390;10.856;2022-09-09T10:02:52;95917.03;;;24.19
50206;BMP280;36098;48.390;10.856;2022-09-09T10:05:29;95914.22;;;24.11
50206;BMP280;36098;48.390;10.856;2022-09-09T10:08:08;95917.34;;;24.13
50206;BMP280;36098;48.390;10.856;2022-09-09T10:13:20;95914.72;;;24.13
50206;BMP280;36098;48.390;10.856;2022-09-09T10:15:58;95910.69;;;24.20
50206;BMP280;36098;48.390;10.856;2022-09-09T10:18:42;95913.34;;;24.15
50206;BMP280;36098;48.390;10.856;2022-09-09T10:21:32;95915.91;;;24.25
50206;BMP280;36098;48.390;10.856;2022-09-09T10:27:16;95905.97;;;24.17
50206;BMP280;36098;48.390;10.856;2022-09-09T10:32:37;95905.59;;;24.29
50206;BMP280;36098;48.390;10.856;2022-09-09T10:35:33;95906.97;;;24.21
50206;BMP280;36098;48.390;10.856;2022-09-09T10:49:25;95899.97;;;24.12
50206;BMP280;36098;48.390;10.856;2022-09-09T10:52:18;95901.91;;;24.01
50206;BMP280;36098;48.390;10.856;2022-09-09T10:57:56;95910.16;;;23.95
50206;BMP280;36098;48.390;10.856;2022-09-09T11:00:30;95905.28;;;24.07
50206;BMP280;36098;48.390;10.856;2022-09-09T11:02:58;95906.63;;;24.04
50206;BMP280;36098;48.390;10.856;2022-09-09T11:05:44;95906.56;;;24.09
50206;BMP280;36098;48.390;10.856;2022-09-09T11:08:17;95904.31;;;23.98
50206;BMP280;36098;48.390;10.856;2022-09-09T11:10:51;95901.97;;;23.96
50206;BMP280;36098;48.390;10.856;2022-09-09T11:16:28;95908.13;;;24.10
50206;BMP280;36098;48.390;10.856;2022-09-09T11:19:09;95909.53;;;24.03
50206;BMP280;36098;48.390;10.856;2022-09-09T11:21:41;95899.28;;;24.01
50206;BMP280;36098;48.390;10.856;2022-09-09T11:24:13;95902.53;;;24.17
50206;BMP280;36098;48.390;10.856;2022-09-09T11:26:51;95895.84;;;24.01
50206;BMP280;36098;48.390;10.856;2022-09-09T11:29:28;95887.31;;;23.80
50206;BMP280;36098;48.390;10.856;2022-09-09T11:35:21;95887.97;;;23.96
50206;BMP280;36098;48.390;10.856;2022-09-09T11:38:21;95891.91;;;23.98
50206;BMP280;36098;48.390;10.856;2022-09-09T11:41:04;95893.09;;;24.11
50206;BMP280;36098;48.390;10.856;2022-09-09T11:43:47;95883.38;;;24.06
50206;BMP280;36098;48.390;10.856;2022-09-09T11:46:15;95887.53;;;24.12
50206;BMP280;36098;48.390;10.856;2022-09-09T11:48:44;95890.09;;;24.22
50206;BMP280;36098;48.390;10.856;2022-09-09T11:51:26;95890.09;;;23.94
50206;BMP280;36098;48.390;10.856;2022-09-09T11:53:57;95887.88;;;23.77
50206;BMP280;36098;48.390;10.856;2022-09-09T11:56:31;95882.59;;;23.77
50206;BMP280;36098;48.390;10.856;2022-09-09T12:06:43;95877.25;;;23.87
50206;BMP280;36098;48.390;10.856;2022-09-09T12:09:26;95882.09;;;24.04
50206;BMP280;36098;48.390;10.856;2022-09-09T12:11:53;95874.91;;;24.09
50206;BMP280;36098;48.390;10.856;2022-09-09T12:14:54;95874.34;;;24.12
50206;BMP280;36098;48.390;10.856;2022-09-09T12:17:22;95877.50;;;24.14
50206;BMP280;36098;48.390;10.856;2022-09-09T12:19:48;95884.69;;;24.09
50206;BMP280;36098;48.390;10.856;2022-09-09T12:22:51;95875.28;;;23.98
50206;BMP280;36098;48.390;10.856;2022-09-09T12:25:27;95877.66;;;23.99
50206;BMP280;36098;48.390;10.856;2022-09-09T12:28:22;95878.75;;;23.93
50206;BMP280;36098;48.390;10.856;2022-09-09T12:30:58;95874.09;;;23.85
50206;BMP280;36098;48.390;10.856;2022-09-09T12:33:24;95868.84;;;23.85
50206;BMP280;36098;48.390;10.856;2022-09-09T12:35:55;95868.13;;;23.75
50206;BMP280;36098;48.390;10.856;2022-09-09T12:38:43;95866.81;;;23.72
50206;BMP280;36098;48.390;10.856;2022-09-09T12:41:23;95861.28;;;23.74
50206;BMP280;36098;48.390;10.856;2022-09-09T12:43:50;95866.09;;;23.67
50206;BMP280;36098;48.390;10.856;2022-09-09T12:46:35;95858.53;;;23.55
50206;BMP280;36098;48.390;10.856;2022-09-09T12:49:02;95860.38;;;23.55
50206;BMP280;36098;48.390;10.856;2022-09-09T12:51:32;95855.31;;;23.63
50206;BMP280;36098;48.390;10.856;2022-09-09T12:53:58;95849.56;;;23.56
50206;BMP280;36098;48.390;10.856;2022-09-09T12:56:26;95855.53;;;23.67
50206;BMP280;36098;48.390;10.856;2022-09-09T12:58:53;95844.44;;;23.70
50206;BMP280;36098;48.390;10.856;2022-09-09T13:01:28;95849.81;;;23.88
50206;BMP280;36098;48.390;10.856;2022-09-09T13:03:54;95833.72;;;23.90
50206;BMP280;36098;48.390;10.856;2022-09-09T13:06:30;95842.81;;;24.02
50206;BMP280;36098;48.390;10.856;2022-09-09T13:08:58;95831.84;;;23.90
50206;BMP280;36098;48.390;10.856;2022-09-09T13:11:41;95824.94;;;23.94
50206;BMP280;36098;48.390;10.856;2022-09-09T13:14:29;95824.19;;;23.94
50206;BMP280;36098;48.390;10.856;2022-09-09T13:16:59;95819.22;;;23.87
50206;BMP280;36098;48.390;10.856;2022-09-09T13:19:25;95818.22;;;23.83
50206;BMP280;36098;48.390;10.856;2022-09-09T13:21:54;95817.59;;;23.63
50206;BMP280;36098;48.390;10.856;2022-09-09T13:24:31;95813.38;;;23.67
50206;BMP280;36098;48.390;10.856;2022-09-09T13:27:03;95815.59;;;23.83
50206;BMP280;36098;48.390;10.856;2022-09-09T13:29:29;95811.25;;;23.92
50206;BMP280;36098;48.390;10.856;2022-09-09T13:32:06;95806.00;;;23.92
50206;BMP280;36098;48.390;10.856;2022-09-09T13:34:34;95797.56;;;23.90
50206;BMP280;36098;48.390;10.856;2022-09-09T13:37:09;95779.69;;;23.87
50206;BMP280;36098;48.390;10.856;2022-09-09T13:39:51;95790.50;;;23.86
50206;BMP280;36098;48.390;10.856;2022-09-09T13:42:27;95785.38;;;23.99
50206;BMP280;36098;48.390;10.856;2022-09-09T13:44:55;95783.78;;;23.98
50206;BMP280;36098;48.390;10.856;2022-09-09T13:47:34;95785.78;;;24.06
50206;BMP280;36098;48.390;10.856;2022-09-09T13:50:18;95788.16;;;24.08
50206;BMP280;36098;48.390;10.856;2022-09-09T13:52:44;95798.59;;;23.94
50206;BMP280;36098;48.390;10.856;2022-09-09T13:55:10;95805.59;;;23.75
50206;BMP280;36098;48.390;10.856;2022-09-09T13:57:35;95812.13;;;23.88
50206;BMP280;36098;48.390;10.856;2022-09-09T14:00:01;95820.56;;;23.85
50206;BMP280;36098;48.390;10.856;2022-09-09T14:02:26;95833.25;;;23.83
50206;BMP280;36098;48.390;10.856;2022-09-09T14:04:51;95862.59;;;23.71
50206;BMP280;36098;48.390;10.856;2022-09-09T14:07:20;95865.41;;;23.80
50206;BMP280;36098;48.390;10.856;2022-09-09T14:09:46;95857.97;;;23.92
50206;BMP280;36098;48.390;10.856;2022-09-09T14:12:15;95846.91;;;24.37
50206;BMP280;36098;48.390;10.856;2022-09-09T14:14:41;95847.19;;;24.35
50206;BMP280;36098;48.390;10.856;2022-09-09T14:17:08;95847.41;;;24.39
50206;BMP280;36098;48.390;10.856;2022-09-09T14:19:33;95841.34;;;24.38
50206;BMP280;36098;48.390;10.856;2022-09-09T14:21:59;95836.19;;;24.52
50206;BMP280;36098;48.390;10.856;2022-09-09T14:24:24;95826.50;;;24.42
50206;BMP280;36098;48.390;10.856;2022-09-09T14:26:50;95829.75;;;24.34
50206;BMP280;36098;48.390;10.856;2022-09-09T14:29:15;95825.63;;;24.28
50206;BMP280;36098;48.390;10.856;2022-09-09T14:31:40;95819.44;;;24.14
50206;BMP280;36098;48.390;10.856;2022-09-09T14:34:09;95822.06;;;24.19
50206;BMP280;36098;48.390;10.856;2022-09-09T14:36:39;95822.63;;;24.16
50206;BMP280;36098;48.390;10.856;2022-09-09T14:39:09;95821.47;;;24.22
50206;BMP280;36098;48.390;10.856;2022-09-09T14:41:36;95825.75;;;24.18
50206;BMP280;36098;48.390;10.856;2022-09-09T14:44:07;95825.69;;;24.47
50206;BMP280;36098;48.390;10.856;2022-09-09T14:46:34;95833.56;;;24.52
50206;BMP280;36098;48.390;10.856;2022-09-09T14:49:01;95839.22;;;24.40
50206;BMP280;36098;48.390;10.856;2022-09-09T14:51:26;95835.03;;;24.58
50206;BMP280;36098;48.390;10.856;2022-09-09T14:53:56;95820.94;;;25.04
50206;BMP280;36098;48.390;10.856;2022-09-09T14:56:24;95813.13;;;25.13
50206;BMP280;36098;48.390;10.856;2022-09-09T14:58:50;95826.44;;;25.26
50206;BMP280;36098;48.390;10.856;2022-09-09T15:01:17;95824.28;;;25.28
50206;BMP280;36098;48.390;10.856;2022-09-09T15:03:49;95822.22;;;25.25
50206;BMP280;36098;48.390;10.856;2022-09-09T15:06:15;95813.69;;;25.28
50206;BMP280;36098;48.390;10.856;2022-09-09T15:08:42;95818.63;;;25.34
50206;BMP280;36098;48.390;10.856;2022-09-09T15:11:09;95815.69;;;25.36
50206;BMP280;36098;48.390;10.856;2022-09-09T15:13:36;95807.44;;;25.24
50206;BMP280;36098;48.390;10.856;2022-09-09T15:16:15;95815.94;;;25.21
50206;BMP280;36098;48.390;10.856;2022-09-09T15:21:12;95814.78;;;25.09
50206;BMP280;36098;48.390;10.856;2022-09-09T15:23:37;95816.13;;;25.06
50206;BMP280;36098;48.390;10.856;2022-09-09T15:26:03;95816.06;;;25.11
50206;BMP280;36098;48.390;10.856;2022-09-09T15:28:31;95819.34;;;25.21
50206;BMP280;36098;48.390;10.856;2022-09-09T15:30:57;95806.13;;;25.21
50206;BMP280;36098;48.390;10.856;2022-09-09T15:33:23;95790.66;;;25.15
50206;BMP280;36098;48.390;10.856;2022-09-09T15:35:48;95804.88;;;25.19
50206;BMP280;36098;48.390;10.856;2022-09-09T15:38:14;95800.50;;;25.28
50206;BMP280;36098;48.390;10.856;2022-09-09T15:40:41;95788.00;;;25.15
50206;BMP280;36098;48.390;10.856;2022-09-09T15:43:06;95793.63;;;25.27
50206;BMP280;36098;48.390;10.856;2022-09-09T15:45:33;95787.84;;;25.25
50206;BMP280;36098;48.390;10.856;2022-09-09T15:48:00;95788.00;;;25.15
50206;BMP280;36098;48.390;10.856;2022-09-09T15:50:26;95790.34;;;25.16